首页
METAR-TAF:

METAR-TAF

机场 :

Valdosta Regional Airport

Valdosta, 喬治亞, 美国

纬度: 30-47N, 经度: 083-17W, 海拔: 62米

当前天气观测

该预报发布于1小时和5分钟前的04:53 UTC
静风
温度 24°C
湿度 78%
气压 1018 hPa
能見度: 16.1公里
天空无云

METAR: KVLD 270453Z AUTO 00000KT 10SM CLR 24/20 A3007 RMK AO2 SLP189 T02390200 403720222

时间: 01:58 (05:58 UTC)

预报

该预报发布于23分钟前的05:35 UTC
预报有效从27日的 06点(UTC)到 28日的 06点(UTC)
风速5节,风向西转西北
能見度: 10公里
散云层高于6000英尺

TAF: KVLD 270535Z 2706/2806 29005KT P6SM SCT060

超过4000个机场的气象观测和天气预报(METAR&TAF报告)。

可查询的气象台以黄色和红色小点在地图上表示。

将鼠标移到小点上方,可查看气象台名称。

然后点击查看天气观测和预报。

如需切换地图:点击带黑十字的绿色按钮放大地图;点击带横线的绿色按钮缩小地图;或者点击绿色箭头查看邻近地区的地图。


METAR-TAF: